Time;durP1;ratioP1;P1;durP2;ratioP2;P2;SDS_P1;SDS_P2;PMS_P1;PMS_P2;Temp;Humidity;BMP_temperature;BMP_pressure;BME280_temperature;BME280_humidity;BME280_pressure;Samples;Min_cycle;Max_cycle;Signal;HPM_P1;HPM_P2
2021/09/08 00:00:52;;;;;;;;;11.00;9.75;;;;;22.55;40.62;101257.28;4916600;28;45803;-73
2021/09/08 00:03:17;;;;;;;;;10.25;10.25;;;;;22.54;40.79;101255.66;4923967;28;45625;-73
2021/09/08 00:05:43;;;;;;;;;12.75;10.50;;;;;22.49;41.20;101248.22;4918143;28;47232;-74
2021/09/08 00:08:08;;;;;;;;;10.75;10.25;;;;;22.48;40.87;101243.88;4916833;28;45529;-73
2021/09/08 00:10:34;;;;;;;;;13.25;11.75;;;;;22.48;41.02;101251.13;4922408;28;45472;-73
2021/09/08 00:12:59;;;;;;;;;13.00;11.25;;;;;22.45;40.93;101230.00;4919949;28;45570;-73
2021/09/08 00:15:25;;;;;;;;;11.75;11.50;;;;;22.43;40.96;101229.41;4915322;28;45560;-74
2021/09/08 00:17:50;;;;;;;;;11.25;11.00;;;;;22.40;41.00;101240.59;4919279;28;45546;-73
2021/09/08 00:20:16;;;;;;;;;12.25;10.25;;;;;22.36;41.09;101231.31;4942520;28;45954;-73
2021/09/08 00:22:43;;;;;;;;;10.00;10.00;;;;;22.32;41.42;101230.91;4918786;28;45546;-73
2021/09/08 00:25:09;;;;;;;;;12.00;12.00;;;;;22.30;41.12;101223.06;4919056;28;45691;-73
2021/09/08 00:27:35;;;;;;;;;14.00;11.75;;;;;22.28;42.06;101217.06;4922517;28;45595;-73
2021/09/08 00:30:00;;;;;;;;;12.50;10.75;;;;;22.23;41.68;101214.19;4918728;28;45519;-73
2021/09/08 00:32:26;;;;;;;;;12.50;10.50;;;;;22.20;41.62;101217.28;4919034;28;45808;-73
2021/09/08 00:34:51;;;;;;;;;11.75;10.00;;;;;22.18;41.89;101211.28;4918717;28;47032;-74
2021/09/08 00:37:16;;;;;;;;;12.25;12.25;;;;;22.15;41.82;101205.50;4921760;28;51018;-73
2021/09/08 00:39:42;;;;;;;;;14.75;11.25;;;;;22.10;42.55;101206.94;4933641;28;46085;-73
2021/09/08 00:42:12;;;;;;;;;11.50;11.00;;;;;22.05;42.14;101200.56;4922156;28;45676;-73
2021/09/08 00:44:38;;;;;;;;;9.75;9.75;;;;;22.00;42.76;101189.63;4936751;28;45898;-73
2021/09/08 00:47:04;;;;;;;;;11.50;11.25;;;;;21.97;42.53;101187.38;4951770;28;45690;-73
2021/09/08 00:49:32;;;;;;;;;13.50;11.00;;;;;21.92;42.42;101184.50;4922249;28;45530;-73
2021/09/08 00:52:03;;;;;;;;;12.00;10.50;;;;;21.89;42.29;101188.44;4921630;28;45462;-74
2021/09/08 00:54:29;;;;;;;;;12.25;9.75;;;;;21.87;42.99;101185.13;4923406;28;47042;-73
2021/09/08 00:56:55;;;;;;;;;9.25;9.25;;;;;21.85;42.92;101189.88;4921346;28;45433;-73
2021/09/08 00:59:21;;;;;;;;;15.75;12.00;;;;;21.82;42.85;101179.56;4923553;28;45557;-73
2021/09/08 01:01:47;;;;;;;;;12.50;12.00;;;;;21.80;42.96;101187.84;4918988;28;45468;-73
2021/09/08 01:04:14;;;;;;;;;9.50;9.50;;;;;21.79;42.93;101180.00;4953716;28;46179;-73
2021/09/08 01:06:40;;;;;;;;;10.00;10.00;;;;;21.76;43.01;101172.31;4921994;28;45566;-73
2021/09/08 01:09:06;;;;;;;;;11.75;10.50;;;;;21.77;42.97;101182.88;4923190;28;45454;-74
2021/09/08 01:11:33;;;;;;;;;9.25;9.25;;;;;21.76;43.20;101181.25;4924129;28;45557;-73
2021/09/08 01:13:58;;;;;;;;;10.00;10.00;;;;;21.73;43.58;101181.66;4918254;28;47007;-73
2021/09/08 01:16:23;;;;;;;;;9.50;9.50;;;;;21.71;43.54;101181.06;4923705;28;45631;-73
2021/09/08 01:18:49;;;;;;;;;11.00;9.25;;;;;21.69;43.48;101175.06;4966155;28;46076;-73
2021/09/08 01:21:14;;;;;;;;;12.00;11.75;;;;;21.69;43.36;101178.56;4925498;28;45691;-73
2021/09/08 01:23:40;;;;;;;;;12.00;10.00;;;;;21.68;43.70;101178.78;4926783;28;46184;-73
2021/09/08 01:26:05;;;;;;;;;12.75;11.25;;;;;21.66;43.78;101175.47;4920718;28;45762;-73
2021/09/08 01:28:31;;;;;;;;;9.75;9.75;;;;;21.66;44.13;101172.78;4920992;28;45562;-73
2021/09/08 01:30:58;;;;;;;;;13.00;10.50;;;;;21.61;43.83;101170.75;4923212;28;45771;-73
2021/09/08 01:33:26;;;;;;;;;11.00;10.00;;;;;21.62;43.97;101171.56;4927564;28;45509;-73
2021/09/08 01:35:52;;;;;;;;;10.25;10.00;;;;;21.59;44.28;101172.81;4930228;28;45443;-73
2021/09/08 01:38:17;;;;;;;;;11.75;11.75;;;;;21.56;44.15;101167.88;4917625;28;45418;-73
2021/09/08 01:40:43;;;;;;;;;12.25;10.75;;;;;21.54;44.07;101167.25;4921073;28;45659;-73
2021/09/08 01:43:09;;;;;;;;;10.00;9.00;;;;;21.52;44.51;101171.19;4922326;28;45742;-73
2021/09/08 01:45:38;;;;;;;;;8.50;8.25;;;;;21.48;44.68;101162.69;4924291;28;45450;-73
2021/09/08 01:48:04;;;;;;;;;15.00;12.00;;;;;21.46;44.66;101162.94;4936913;28;45482;-73
2021/09/08 01:50:30;;;;;;;;;16.25;11.50;;;;;21.45;44.72;101165.81;4922376;28;45540;-72
2021/09/08 01:52:56;;;;;;;;;11.00;11.00;;;;;21.43;44.64;101162.50;4922800;28;47268;-72
2021/09/08 01:55:22;;;;;;;;;11.75;11.75;;;;;21.39;45.00;101154.03;4919671;28;45543;-73
2021/09/08 01:57:47;;;;;;;;;17.50;11.00;;;;;21.37;44.94;101160.63;4923926;28;45569;-73
2021/09/08 02:00:15;;;;;;;;;10.75;9.25;;;;;21.34;44.90;101153.81;4923484;28;45917;-73
2021/09/08 02:02:40;;;;;;;;;12.00;11.75;;;;;21.33;45.10;101154.03;4943860;28;45527;-73
2021/09/08 02:05:06;;;;;;;;;14.00;12.00;;;;;21.29;45.26;101148.25;4921091;28;45453;-73
2021/09/08 02:07:32;;;;;;;;;12.00;12.00;;;;;21.26;45.52;101149.50;4918966;28;45515;-73
2021/09/08 02:09:57;;;;;;;;;12.75;12.00;;;;;21.23;45.29;101143.69;4921920;28;45431;-73
2021/09/08 02:12:23;;;;;;;;;10.50;10.50;;;;;21.19;45.49;101137.94;4925216;28;45549;-73
2021/09/08 02:14:48;;;;;;;;;13.25;11.25;;;;;21.15;46.85;101136.69;4922034;28;45587;-74
2021/09/08 02:17:14;;;;;;;;;13.75;12.50;;;;;21.07;45.37;101138.75;4921137;28;45467;-73
2021/09/08 02:19:39;;;;;;;;;11.75;11.00;;;;;21.01;46.12;101135.06;4922115;28;45432;-73
2021/09/08 02:22:05;;;;;;;;;13.00;11.25;;;;;20.96;46.10;101132.97;4919869;28;46356;-73
2021/09/08 02:24:30;;;;;;;;;13.25;12.25;;;;;20.89;47.72;101126.78;4924769;28;45583;-73
2021/09/08 02:26:55;;;;;;;;;10.50;9.75;;;;;20.85;46.90;101122.06;4920718;28;45798;-73
2021/09/08 02:29:21;;;;;;;;;16.25;14.00;;;;;20.80;47.29;101118.13;4920868;28;45483;-73
2021/09/08 02:31:46;;;;;;;;;13.50;11.25;;;;;20.78;47.03;101119.38;4918883;28;45454;-73
2021/09/08 02:34:11;;;;;;;;;13.00;12.25;;;;;20.77;47.53;101112.34;4919153;28;45781;-73
2021/09/08 02:36:37;;;;;;;;;14.75;13.25;;;;;20.71;47.40;101114.00;4924209;28;51241;-73
2021/09/08 02:39:02;;;;;;;;;17.75;13.75;;;;;20.65;47.89;101103.25;4924398;28;45754;-73
2021/09/08 02:41:28;;;;;;;;;14.50;12.75;;;;;20.62;47.62;101101.81;4916321;28;45973;-73
2021/09/08 02:43:53;;;;;;;;;13.00;11.00;;;;;20.58;47.64;101103.25;4916806;28;45477;-75
2021/09/08 02:46:19;;;;;;;;;11.25;10.75;;;;;20.54;48.80;101101.97;4916200;28;45467;-73
2021/09/08 02:48:45;;;;;;;;;12.00;11.00;;;;;20.48;48.26;101102.81;4940713;28;45629;-73
2021/09/08 02:51:10;;;;;;;;;14.00;13.00;;;;;20.43;50.39;101110.66;4924754;28;45946;-75
2021/09/08 02:53:36;;;;;;;;;12.75;12.75;;;;;20.36;48.98;101105.28;4925115;28;45530;-74
2021/09/08 02:56:03;;;;;;;;;11.75;11.00;;;;;20.34;49.03;101102.78;4917493;28;45396;-74
2021/09/08 02:58:30;;;;;;;;;15.00;14.50;;;;;20.32;49.04;101096.78;4921042;28;45474;-75
2021/09/08 03:00:56;;;;;;;;;14.75;10.75;;;;;20.31;49.07;101097.03;4919690;28;55543;-74
2021/09/08 03:03:22;;;;;;;;;6.75;5.75;;;;;20.28;49.14;101087.53;4925367;28;45493;-74
2021/09/08 03:05:48;;;;;;;;;15.00;11.75;;;;;20.28;49.40;101092.06;4920852;28;45433;-73
2021/09/08 03:08:14;;;;;;;;;15.25;14.00;;;;;20.24;49.92;101083.59;4921983;28;45873;-75
2021/09/08 03:10:43;;;;;;;;;13.25;13.25;;;;;20.18;49.70;101076.38;4920920;28;45465;-77
2021/09/08 03:13:08;;;;;;;;;15.00;11.00;;;;;20.14;50.80;101070.56;4922165;28;45624;-76
2021/09/08 03:15:34;;;;;;;;;14.75;14.50;;;;;20.09;51.48;101069.53;4938302;28;45430;-77
2021/09/08 03:17:59;;;;;;;;;15.50;14.50;;;;;20.02;50.24;101066.81;4920929;28;46101;-75
2021/09/08 03:20:24;;;;;;;;;14.25;12.25;;;;;20.03;50.54;101064.97;4921045;28;46165;-77
2021/09/08 03:22:50;;;;;;;;;19.75;13.25;;;;;20.02;50.11;101074.88;4922278;28;45438;-76
2021/09/08 03:25:16;;;;;;;;;16.25;13.50;;;;;20.01;51.02;101067.06;4921294;28;45573;-76
2021/09/08 03:27:41;;;;;;;;;17.75;16.00;;;;;19.98;50.27;101066.41;4966136;28;45924;-76
2021/09/08 03:30:08;;;;;;;;;16.50;12.25;;;;;19.95;50.82;101065.97;4919956;28;46172;-76
2021/09/08 03:32:33;;;;;;;;;19.50;16.25;;;;;19.92;50.84;101064.53;4918004;28;45484;-76
2021/09/08 03:34:59;;;;;;;;;16.50;13.75;;;;;19.90;50.50;101058.53;4918819;28;45468;-77
2021/09/08 03:37:25;;;;;;;;;18.00;15.00;;;;;19.91;52.05;101060.22;4915369;28;45633;-76
2021/09/08 03:39:52;;;;;;;;;16.00;14.75;;;;;19.84;51.45;101058.53;4916877;28;46323;-76
2021/09/08 03:42:18;;;;;;;;;16.25;13.50;;;;;19.80;51.22;101057.28;4987512;28;45850;-75
2021/09/08 03:44:44;;;;;;;;;13.50;13.50;;;;;19.78;51.25;101054.78;4917824;28;45613;-75
2021/09/08 03:47:09;;;;;;;;;16.25;15.00;;;;;19.76;52.16;101046.16;4916631;28;46038;-76
2021/09/08 03:49:35;;;;;;;;;15.00;13.00;;;;;19.71;51.46;101046.75;4917891;28;47358;-76
2021/09/08 03:52:00;;;;;;;;;14.75;12.25;;;;;19.71;51.75;101043.25;4916497;28;46178;-76
2021/09/08 03:54:25;;;;;;;;;18.00;15.25;;;;;19.70;51.91;101042.41;4921514;28;45510;-76
2021/09/08 03:56:51;;;;;;;;;16.00;14.75;;;;;19.66;51.76;101033.09;4917747;28;45631;-75
2021/09/08 03:59:16;;;;;;;;;17.25;16.25;;;;;19.65;53.54;101027.94;4910169;28;56301;-76
2021/09/08 04:01:42;;;;;;;;;14.00;12.75;;;;;19.63;52.18;101020.06;4917344;28;45775;-75
2021/09/08 04:04:07;;;;;;;;;17.25;15.50;;;;;19.63;51.96;101020.06;4925371;28;45411;-75
2021/09/08 04:06:32;;;;;;;;;15.25;14.50;;;;;19.63;53.03;101024.63;4916412;28;45363;-76
2021/09/08 04:08:58;;;;;;;;;16.25;16.00;;;;;19.59;52.35;101013.47;4924611;28;47854;-76
2021/09/08 04:11:24;;;;;;;;;19.25;14.75;;;;;19.60;52.57;101008.94;4921426;28;45569;-75
2021/09/08 04:13:49;;;;;;;;;19.25;14.75;;;;;19.60;52.35;101012.44;4922979;28;45392;-75
2021/09/08 04:16:15;;;;;;;;;18.00;14.50;;;;;19.61;52.42;101005.22;4914073;28;45436;-75
2021/09/08 04:18:40;;;;;;;;;16.25;13.75;;;;;19.60;52.32;101015.13;4922709;28;46526;-75
2021/09/08 04:21:05;;;;;;;;;14.75;12.25;;;;;19.60;52.40;101014.31;4926369;28;45523;-75
2021/09/08 04:23:31;;;;;;;;;13.50;13.50;;;;;19.60;52.61;101019.66;4924886;28;45655;-76
2021/09/08 04:25:56;;;;;;;;;14.75;13.50;;;;;19.59;52.47;101015.34;4926839;28;45970;-76
2021/09/08 04:28:21;;;;;;;;;17.50;14.25;;;;;19.58;52.90;101016.34;4927219;28;46068;-75
2021/09/08 04:30:47;;;;;;;;;16.50;15.25;;;;;19.55;52.58;101018.41;4934098;28;45830;-75
2021/09/08 04:33:12;;;;;;;;;18.50;15.50;;;;;19.55;52.90;101010.38;4925859;28;45413;-75
2021/09/08 04:35:40;;;;;;;;;16.75;15.75;;;;;19.55;52.83;100999.63;4922656;28;45694;-76
2021/09/08 04:38:05;;;;;;;;;16.00;13.75;;;;;19.58;52.83;101005.63;5005035;28;46418;-75
2021/09/08 04:40:30;;;;;;;;;17.25;15.25;;;;;19.59;53.05;101001.94;4920763;28;45628;-75
2021/09/08 04:42:56;;;;;;;;;8.75;8.00;;;;;19.57;52.83;100999.44;4996260;28;45939;-75
2021/09/08 04:45:21;;;;;;;;;16.00;14.25;;;;;19.58;53.01;101005.63;4927366;28;45583;-75
2021/09/08 04:47:46;;;;;;;;;16.00;15.50;;;;;19.59;53.05;101001.94;4923266;28;46664;-75
2021/09/08 04:50:12;;;;;;;;;16.50;14.75;;;;;19.59;52.98;101010.81;4920197;28;45520;-75
2021/09/08 04:52:37;;;;;;;;;14.50;14.00;;;;;19.58;53.01;101009.13;4974600;28;45904;-75
2021/09/08 04:55:03;;;;;;;;;16.75;14.00;;;;;19.60;52.89;101004.41;4923106;28;45486;-75
2021/09/08 04:57:29;;;;;;;;;15.75;13.75;;;;;19.61;53.15;101013.25;4926624;28;47406;-75
2021/09/08 04:59:54;;;;;;;;;10.75;9.50;;;;;19.60;53.19;101014.31;4924584;28;45479;-76
2021/09/08 05:02:19;;;;;;;;;15.50;15.00;;;;;19.60;53.27;101011.63;4935871;28;45434;-76
2021/09/08 05:04:45;;;;;;;;;20.75;18.25;;;;;19.59;53.30;101009.97;4919442;28;45442;-75
2021/09/08 05:07:10;;;;;;;;;19.25;16.50;;;;;19.57;53.34;101012.03;4920377;28;47247;-76
2021/09/08 05:09:36;;;;;;;;;19.00;17.25;;;;;19.56;53.68;101003.19;4929727;28;45468;-76
2021/09/08 05:12:01;;;;;;;;;18.50;16.25;;;;;19.55;53.57;101005.00;4924760;28;45404;-75
2021/09/08 05:14:26;;;;;;;;;17.50;15.75;;;;;19.54;53.85;101006.03;4914963;28;45435;-75
2021/09/08 05:16:52;;;;;;;;;23.50;20.50;;;;;19.53;54.44;101014.28;4918467;28;46259;-75
2021/09/08 05:19:17;;;;;;;;;18.50;18.50;;;;;19.49;53.65;101000.47;4920372;28;45624;-75
2021/09/08 05:21:43;;;;;;;;;17.75;17.25;;;;;19.50;53.78;101009.31;4923633;28;45414;-75
2021/09/08 05:24:08;;;;;;;;;17.75;17.00;;;;;19.48;53.74;101004.16;4924653;28;45634;-75
2021/09/08 05:26:33;;;;;;;;;19.50;16.50;;;;;19.50;53.81;101012.00;4919089;28;45462;-76
2021/09/08 05:28:58;;;;;;;;;20.00;19.75;;;;;19.51;53.84;101008.28;4916749;28;50046;-75
2021/09/08 05:31:24;;;;;;;;;19.75;17.00;;;;;19.51;53.97;101009.13;4918577;28;45775;-75
2021/09/08 05:33:49;;;;;;;;;16.00;14.50;;;;;19.51;54.05;101005.59;4919744;28;45460;-78
2021/09/08 05:36:15;;;;;;;;;19.25;17.50;;;;;19.49;53.91;101003.16;4922438;28;48134;-77
2021/09/08 05:38:42;;;;;;;;;18.50;16.50;;;;;19.52;54.05;101004.59;4916449;28;56669;-78
2021/09/08 05:41:10;;;;;;;;;20.75;15.75;;;;;19.55;54.15;101001.50;4938985;28;45321;-77
2021/09/08 05:43:36;;;;;;;;;17.50;14.50;;;;;19.57;54.27;101004.81;4922752;28;45503;-79
2021/09/08 05:46:02;;;;;;;;;17.75;16.50;;;;;19.59;54.06;101009.97;4918347;28;45975;-78
2021/09/08 05:48:28;;;;;;;;;20.25;19.25;;;;;19.63;53.86;101004.00;4931433;28;45421;-78
2021/09/08 05:50:53;;;;;;;;;21.00;18.25;;;;;19.66;54.01;101000.09;4914977;28;45684;-73
2021/09/08 05:53:19;;;;;;;;;22.75;18.75;;;;;19.69;54.55;101002.41;4913777;28;45549;-79
2021/09/08 05:55:44;;;;;;;;;20.50;19.25;;;;;19.76;54.22;101008.63;4940332;28;46506;-78
2021/09/08 05:58:09;;;;;;;;;19.00;17.00;;;;;19.79;54.40;101000.16;4918031;28;45562;-78
2021/09/08 06:00:35;;;;;;;;;17.75;17.00;;;;;19.79;55.55;101002.84;4920963;28;45429;-78
2021/09/08 06:03:00;;;;;;;;;16.75;16.75;;;;;19.82;54.77;101012.34;4929793;28;45475;-78
2021/09/08 06:05:26;;;;;;;;;16.00;14.00;;;;;19.81;55.15;100999.97;4917236;28;46395;-77
2021/09/08 06:07:51;;;;;;;;;19.00;17.75;;;;;19.87;54.20;101010.69;4913340;28;45784;-78
2021/09/08 06:10:23;;;;;;;;;17.25;15.25;;;;;19.89;54.13;101005.13;4933806;28;46190;-79
2021/09/08 06:12:48;;;;;;;;;24.25;18.50;;;;;19.95;53.59;100999.78;4938793;28;45733;-79
2021/09/08 06:15:17;;;;;;;;;18.25;16.25;;;;;20.01;54.02;101000.81;4925028;28;46228;-79
2021/09/08 06:17:43;;;;;;;;;20.25;17.75;;;;;20.07;55.22;101008.03;4933095;28;45683;-79
2021/09/08 06:20:09;;;;;;;;;18.00;16.50;;;;;20.12;54.45;101002.84;4926837;28;45589;-79
2021/09/08 06:22:34;;;;;;;;;15.25;14.75;;;;;20.16;54.92;100992.56;4927712;28;45649;-78
2021/09/08 06:25:00;;;;;;;;;18.00;13.75;;;;;20.17;55.24;100997.69;4931903;28;46126;-79
2021/09/08 06:27:25;;;;;;;;;15.00;14.75;;;;;20.23;54.77;100992.53;4921887;28;45412;-78
2021/09/08 06:29:51;;;;;;;;;18.75;16.25;;;;;20.26;53.83;100986.78;4932662;28;45867;-78
2021/09/08 06:32:16;;;;;;;;;20.25;16.25;;;;;20.32;53.99;100985.94;4917721;28;45634;-78
2021/09/08 06:34:45;;;;;;;;;18.75;15.75;;;;;20.45;53.75;100982.41;4936573;28;45652;-77
2021/09/08 06:37:11;;;;;;;;;19.50;17.25;;;;;20.58;53.94;100977.06;4917882;28;45773;-77
2021/09/08 06:39:37;;;;;;;;;21.75;19.50;;;;;20.67;53.65;100973.09;4921525;28;45553;-75
2021/09/08 06:42:03;;;;;;;;;16.50;15.75;;;;;20.73;53.14;100974.16;4942198;28;45547;-78
2021/09/08 06:44:29;;;;;;;;;18.75;16.75;;;;;20.78;52.94;100974.34;4933512;28;45842;-80
2021/09/08 06:46:54;;;;;;;;;16.25;16.25;;;;;20.88;53.04;100968.53;4915516;28;45516;-80
2021/09/08 06:49:20;;;;;;;;;19.00;16.75;;;;;21.43;52.05;100969.75;4920141;28;45455;-80
2021/09/08 06:51:45;;;;;;;;;15.25;14.50;;;;;21.86;50.55;100973.63;4921791;28;45872;-79
2021/09/08 06:54:11;;;;;;;;;19.75;15.50;;;;;21.81;50.99;100963.53;4923392;28;46204;-79
2021/09/08 06:56:36;;;;;;;;;19.00;17.75;;;;;21.95;50.44;100974.19;4917968;28;45507;-79
2021/09/08 06:59:01;;;;;;;;;19.75;17.50;;;;;22.21;50.46;100963.22;4918094;28;45582;-79
2021/09/08 07:01:27;;;;;;;;;15.50;15.50;;;;;22.71;49.59;100979.31;4917304;28;45492;-79
2021/09/08 07:03:52;;;;;;;;;16.25;14.50;;;;;23.34;47.60;100967.41;4914532;28;54601;-77
2021/09/08 07:06:20;;;;;;;;;16.00;16.00;;;;;23.24;48.02;100961.69;4918127;28;45503;-78
2021/09/08 07:08:46;;;;;;;;;15.25;15.25;;;;;23.11;47.77;100978.06;4915599;28;45581;-77
2021/09/08 07:11:11;;;;;;;;;13.25;13.00;;;;;23.08;47.58;100978.50;4944554;28;45436;-78
2021/09/08 07:13:36;;;;;;;;;17.00;17.00;;;;;22.98;48.26;100979.03;4925716;28;45973;-77
2021/09/08 07:16:02;;;;;;;;;16.75;15.50;;;;;22.95;47.71;100974.91;4914572;28;45467;-74
2021/09/08 07:18:27;;;;;;;;;17.00;14.75;;;;;22.95;47.86;100969.50;4934789;28;45967;-75
2021/09/08 07:20:53;;;;;;;;;14.75;14.50;;;;;23.01;47.90;100964.28;4914016;28;51133;-76
2021/09/08 07:23:18;;;;;;;;;17.25;14.00;;;;;23.09;48.11;100963.97;4914686;28;46056;-79
2021/09/08 07:25:43;;;;;;;;;19.50;15.00;;;;;23.38;47.52;100963.16;4928432;28;45683;-78
2021/09/08 07:28:09;;;;;;;;;17.75;16.00;;;;;23.75;47.20;100960.38;4930468;28;60931;-77
2021/09/08 07:30:34;;;;;;;;;11.50;10.50;;;;;23.88;46.27;100967.44;4926814;28;45859;-79
2021/09/08 07:33:00;;;;;;;;;20.50;14.50;;;;;23.94;45.97;100952.22;4928617;28;48143;-79
2021/09/08 07:35:26;;;;;;;;;14.75;14.50;;;;;24.04;45.94;100953.28;4922720;28;46103;-78
2021/09/08 07:37:51;;;;;;;;;19.25;18.25;;;;;24.19;46.40;100955.53;4922849;28;45601;-76
2021/09/08 07:40:18;;;;;;;;;21.75;18.00;;;;;24.46;46.16;100955.09;4917293;28;45680;-78
2021/09/08 07:42:43;;;;;;;;;17.00;16.00;;;;;25.07;44.41;100953.66;4912921;28;47272;-79
2021/09/08 07:45:10;;;;;;;;;14.50;11.00;;;;;26.44;44.32;100948.16;4917050;28;45514;-79
2021/09/08 07:47:35;;;;;;;;;18.75;16.00;;;;;28.47;39.47;100936.91;4930700;28;45849;-79
2021/09/08 07:50:00;;;;;;;;;20.50;16.00;;;;;30.37;35.26;100942.72;4920357;28;45469;-78
2021/09/08 07:52:26;;;;;;;;;20.00;17.00;;;;;32.38;33.29;100932.09;4930335;28;45506;-77
2021/09/08 07:54:51;;;;;;;;;22.25;17.00;;;;;34.32;32.60;100931.94;4910598;28;51247;-76
2021/09/08 07:57:16;;;;;;;;;20.50;16.25;;;;;36.29;27.42;100936.97;4932506;28;45958;-76
2021/09/08 07:59:42;;;;;;;;;15.25;14.50;;;;;38.20;25.36;100938.94;4926056;28;45955;-77
2021/09/08 08:02:07;;;;;;;;;15.75;14.50;;;;;39.69;25.91;100938.72;4917876;28;46062;-76
2021/09/08 08:04:32;;;;;;;;;16.75;15.75;;;;;40.84;23.60;100938.56;4931217;28;46462;-77
2021/09/08 08:06:58;;;;;;;;;15.25;13.50;;;;;42.12;23.41;100941.69;4921022;28;45349;-77
2021/09/08 08:09:23;;;;;;;;;16.00;13.00;;;;;43.70;20.75;100954.25;4919569;28;45519;-77
2021/09/08 08:11:49;;;;;;;;;15.75;14.00;;;;;44.42;20.10;100957.06;4925906;28;45966;-77
2021/09/08 08:14:16;;;;;;;;;15.75;14.50;;;;;44.95;20.81;100953.44;4914666;28;45956;-77
2021/09/08 08:16:42;;;;;;;;;15.25;14.25;;;;;45.43;16.33;100958.38;4915600;28;50830;-77
2021/09/08 08:19:07;;;;;;;;;15.25;14.50;;;;;45.76;18.80;100954.75;4914332;28;45852;-77
2021/09/08 08:21:34;;;;;;;;;15.25;15.25;;;;;46.88;16.30;100956.34;4918870;28;45974;-77
2021/09/08 08:24:00;;;;;;;;;14.75;13.50;;;;;47.77;18.34;100955.81;4918700;28;45860;-77
2021/09/08 08:26:25;;;;;;;;;15.75;13.50;;;;;48.49;17.17;100956.56;4916713;28;45758;-77
2021/09/08 08:28:50;;;;;;;;;16.25;14.25;;;;;48.99;15.67;100955.63;4916203;28;45685;-77
2021/09/08 08:31:16;;;;;;;;;14.50;14.50;;;;;48.53;14.90;100942.56;4913392;28;46080;-77
2021/09/08 08:33:43;;;;;;;;;13.25;13.00;;;;;48.50;14.60;100949.00;4916517;28;45676;-77
2021/09/08 08:36:09;;;;;;;;;16.00;15.50;;;;;48.95;14.59;100950.06;4917454;28;45466;-77
2021/09/08 08:38:35;;;;;;;;;14.25;14.25;;;;;49.59;14.82;100948.88;4915396;28;45913;-77
2021/09/08 08:41:03;;;;;;;;;14.75;12.50;;;;;50.53;14.58;100944.00;4915953;28;47107;-77
2021/09/08 08:43:28;;;;;;;;;13.75;12.50;;;;;51.22;14.27;100945.94;4912401;28;45674;-77
2021/09/08 08:45:55;;;;;;;;;13.25;10.00;;;;;51.14;13.33;100936.81;4914620;28;48102;-78
2021/09/08 08:48:20;;;;;;;;;13.75;13.75;;;;;51.38;13.69;100927.25;4918379;28;45504;-77
2021/09/08 08:50:46;;;;;;;;;13.50;13.00;;;;;51.66;12.90;100933.59;4916191;28;45931;-77
2021/09/08 08:53:11;;;;;;;;;15.00;15.00;;;;;51.78;10.96;100930.22;4914458;28;45547;-78
2021/09/08 08:55:37;;;;;;;;;13.75;12.00;;;;;51.47;11.48;100928.72;4921234;28;45885;-78
2021/09/08 08:58:02;;;;;;;;;14.50;14.50;;;;;51.03;12.86;100922.09;4916824;28;46089;-80
2021/09/08 09:00:28;;;;;;;;;16.50;14.25;;;;;50.68;13.41;100922.16;4923931;28;46371;-79
2021/09/08 09:02:54;;;;;;;;;12.75;12.75;;;;;51.20;11.68;100918.25;4910287;28;45417;-79
2021/09/08 09:05:30;;;;;;;;;12.25;12.00;;;;;51.00;13.47;100918.13;4909831;28;45617;-79
2021/09/08 09:07:55;;;;;;;;;13.50;12.50;;;;;51.04;13.68;100915.28;4920596;28;54426;-79
2021/09/08 09:10:21;;;;;;;;;15.25;14.25;;;;;51.45;12.54;100909.44;4922772;28;45526;-79
2021/09/08 09:12:47;;;;;;;;;14.75;13.50;;;;;50.79;12.73;100904.38;4922052;28;49404;-80
2021/09/08 09:15:17;;;;;;;;;14.00;13.50;;;;;50.31;12.82;100911.72;4926794;28;45454;-80
2021/09/08 09:17:45;;;;;;;;;15.75;14.50;;;;;50.29;13.07;100906.53;4924686;28;45546;-80
2021/09/08 09:20:15;;;;;;;;;16.75;14.50;;;;;50.34;12.32;100908.09;4919489;28;46330;-80
2021/09/08 09:22:50;;;;;;;;;14.25;14.25;;;;;49.76;13.26;100910.66;4910212;28;46054;-79
2021/09/08 09:25:38;;;;;;;;;15.25;13.75;;;;;49.11;12.61;100895.47;4908876;28;45485;-79
2021/09/08 09:28:07;;;;;;;;;12.75;12.00;;;;;48.70;13.42;100891.28;4920756;28;45517;-80
2021/09/08 09:30:35;;;;;;;;;13.50;12.75;;;;;48.23;14.02;100885.81;4926615;28;45569;-79
2021/09/08 09:33:01;;;;;;;;;13.50;13.50;;;;;48.31;14.61;100889.38;4910843;28;45498;-79
2021/09/08 09:35:32;;;;;;;;;12.50;12.50;;;;;48.50;13.68;100896.53;4908535;28;45570;-79
2021/09/08 09:38:04;;;;;;;;;14.25;14.25;;;;;48.54;14.70;100890.91;4909515;28;45568;-79
2021/09/08 09:40:32;;;;;;;;;14.25;11.75;;;;;49.15;13.95;100897.06;4909434;28;45593;-79
2021/09/08 09:43:10;;;;;;;;;13.25;13.25;;;;;49.66;12.97;100881.47;4919529;28;45565;-79
2021/09/08 09:45:39;;;;;;;;;12.00;11.75;;;;;49.28;13.13;100884.16;4927045;28;45891;-80
2021/09/08 09:48:07;;;;;;;;;13.25;13.00;;;;;48.82;13.54;100885.19;4912439;28;45871;-80
2021/09/08 09:50:33;;;;;;;;;12.75;12.75;;;;;48.07;14.92;100879.03;4910797;28;50406;-78
2021/09/08 09:52:59;;;;;;;;;15.50;14.00;;;;;47.31;15.30;100878.19;4913000;28;45920;-78
2021/09/08 09:55:26;;;;;;;;;13.75;12.75;;;;;46.54;15.40;100872.75;4919496;28;45574;-78
2021/09/08 09:57:53;;;;;;;;;12.75;11.00;;;;;45.86;15.45;100880.69;4935864;28;45456;-80
2021/09/08 10:00:19;;;;;;;;;13.50;13.50;;;;;44.45;17.02;100888.69;4911393;28;45352;-79
2021/09/08 10:02:47;;;;;;;;;14.50;13.75;;;;;43.07;17.57;100880.34;4908985;28;45625;-79
2021/09/08 10:05:14;;;;;;;;;15.50;14.25;;;;;42.00;19.55;100865.69;4908708;28;45703;-78
2021/09/08 10:07:39;;;;;;;;;16.25;13.75;;;;;41.57;19.34;100866.56;4931021;28;45859;-78
2021/09/08 10:10:30;;;;;;;;;13.25;13.25;;;;;40.82;20.17;100863.31;4930854;28;45492;-78
2021/09/08 10:13:23;;;;;;;;;15.75;15.75;;;;;40.40;20.82;100863.63;4921297;28;45932;-78
2021/09/08 10:15:51;;;;;;;;;13.00;12.50;;;;;40.06;20.94;100862.16;4932333;28;45647;-78
2021/09/08 10:18:21;;;;;;;;;11.25;11.00;;;;;39.93;21.81;100869.63;4921500;28;45601;-78
2021/09/08 10:20:52;;;;;;;;;13.00;12.25;;;;;39.88;22.50;100869.06;4937861;28;46435;-78
2021/09/08 10:23:18;;;;;;;;;14.75;13.00;;;;;39.95;21.57;100861.81;4936774;28;45845;-78
2021/09/08 10:25:47;;;;;;;;;10.25;9.75;;;;;39.75;22.27;100865.44;4936530;28;45719;-80
2021/09/08 10:28:18;;;;;;;;;15.25;15.25;;;;;39.58;22.18;100860.13;4941241;28;45530;-77
2021/09/08 10:30:45;;;;;;;;;16.00;15.75;;;;;39.31;22.50;100860.38;4938417;28;46231;-80
2021/09/08 10:33:12;;;;;;;;;13.75;13.25;;;;;39.18;22.84;100853.22;4934838;28;45620;-77
2021/09/08 10:35:39;;;;;;;;;10.75;10.75;;;;;39.15;22.80;100851.13;4935041;28;45558;-77
2021/09/08 10:38:17;;;;;;;;;12.25;12.25;;;;;39.12;23.00;100849.88;4920733;28;45617;-76
2021/09/08 10:40:44;;;;;;;;;13.50;13.50;;;;;39.08;22.31;100848.13;4934368;28;45970;-76
2021/09/08 10:43:10;;;;;;;;;15.00;14.00;;;;;38.88;23.06;100845.00;4932185;28;46026;-78
2021/09/08 10:45:47;;;;;;;;;14.00;14.00;;;;;38.84;22.67;100835.78;4922776;28;45525;-76
2021/09/08 10:48:42;;;;;;;;;13.50;13.00;;;;;39.04;23.52;100847.16;4950832;28;45510;-77
2021/09/08 10:51:44;;;;;;;;;13.00;13.00;;;;;39.00;22.91;100841.53;4921038;28;45904;-78
2021/09/08 10:54:09;;;;;;;;;13.50;13.50;;;;;38.89;22.59;100840.28;4939529;28;45644;-80
2021/09/08 10:56:43;;;;;;;;;14.00;13.00;;;;;38.45;23.03;100839.81;4939904;28;45678;-77
2021/09/08 10:59:08;;;;;;;;;15.25;13.25;;;;;38.20;23.46;100836.88;4935817;28;45626;-78
2021/09/08 11:01:34;;;;;;;;;16.25;12.25;;;;;38.24;24.44;100826.78;4937012;28;46285;-77
2021/09/08 11:03:59;;;;;;;;;11.25;10.50;;;;;38.80;23.65;100832.09;4937584;28;45519;-79
2021/09/08 11:06:33;;;;;;;;;11.25;11.25;;;;;38.93;23.62;100827.47;4942762;28;45596;-80